Lowlands, Sint Maarten

3:20 PM AST on August 18, 2017 (GMT -0400)
Saint Martin | | Change Station

Elev 111 ft 18.07 °N, 63.14 °W | Updated 8 seconds ago

Scattered Clouds
Scattered Clouds
87.3 °F
Feels Like 95 °F
N
4.5
Wind Variable Wind from ENE
Gusts 18.3 mph

Today
High -- | Low -- °F
--% Chance of Precip.
Yesterday
High -- | Low -- °F
Precip. -- in
Pressure 29.89 in
Visibility 6.2 miles
Clouds Scattered Clouds 1800 ft
Heat Index 95 °F
Dew Point 73 °F
Humidity 63%
Rainfall 0.00 in
Snow Depth Not available.
5:55 AM 6:36 PM
Waning Crescent, 12% visible
METAR TNCM 181900Z 07016KT 9999 SCT018 30/25 Q1012 A2989 NOSIG RMK JP TO S, SW, HZ ALQUAD
Pressure 29.89 in
Visibility 6.2 miles
Clouds Scattered Clouds 1800 ft
Heat Index 95 °F
Dew Point 73 °F
Humidity 63%
Rainfall 0.00 in
Snow Depth Not available.
5:55 AM 6:36 PM
Waning Crescent, 12% visible
METAR TNCM 181900Z 07016KT 9999 SCT018 30/25 Q1012 A2989 NOSIG RMK JP TO S, SW, HZ ALQUAD

Get Severe Weather Alerts

Thanks for signing up!

Be on the lookout for a verification email in your inbox.

You'll start receiving the daily forecast at 6 AM.

×

10-Day Weather Forecast

No radar image for this location.
×

Almanac

Astronomy

Aug. 18, 2017 Rise Set
Actual Time
Civil Twilight
Nautical Twilight
Astronomical Twilight
Moon
Length of Visible Light
Length of Day
Tomorrow will be .
, % of the Moon is Illuminated

Today's Extremes

Country Highs Country Lows

Community

WunderPhotos

Category 6

Welcome to Category 6. This is the collective home for Weather Underground's featured writeups by Dr. Jeff Masters (right), Bob Henson (left), Chris Burt, and other regular contributors.

Nearby

Air Quality

  Air Quality AQ Index Pollutant
Not available.

Snow Depth

Station Depth Elevation

Earthquake Activity

City Distance Mag. Time & Date
Minimum magnitude displayed is 2.5.

Coastal Water Temperatures

Place Temperature

Stations

Nearby Weather Stations

Station Location Temp. Windchill Dew Point Humidity Wind Precip. Elev Updated Type